sensor_id;sensor_type;location;lat;lon;timestamp;P1;durP1;ratioP1;P2;durP2;ratioP2
77170;SDS011;66144;50.020;14.422;2023-08-17T00:00:18;10.77;;;8.20;;
77170;SDS011;66144;50.020;14.422;2023-08-17T00:02:44;9.43;;;8.27;;
77170;SDS011;66144;50.020;14.422;2023-08-17T00:05:09;12.55;;;8.85;;
77170;SDS011;66144;50.020;14.422;2023-08-17T00:07:35;10.60;;;7.88;;
77170;SDS011;66144;50.020;14.422;2023-08-17T00:10:01;12.40;;;9.15;;
77170;SDS011;66144;50.020;14.422;2023-08-17T00:12:27;11.23;;;9.38;;
77170;SDS011;66144;50.020;14.422;2023-08-17T00:14:53;10.50;;;8.68;;
77170;SDS011;66144;50.020;14.422;2023-08-17T00:17:18;11.13;;;9.13;;
77170;SDS011;66144;50.020;14.422;2023-08-17T00:19:44;11.43;;;8.75;;
77170;SDS011;66144;50.020;14.422;2023-08-17T00:22:10;11.65;;;8.73;;
77170;SDS011;66144;50.020;14.422;2023-08-17T00:24:35;10.25;;;7.60;;
77170;SDS011;66144;50.020;14.422;2023-08-17T00:27:01;10.90;;;7.95;;
77170;SDS011;66144;50.020;14.422;2023-08-17T00:29:26;9.38;;;7.80;;
77170;SDS011;66144;50.020;14.422;2023-08-17T00:31:51;10.95;;;7.70;;
77170;SDS011;66144;50.020;14.422;2023-08-17T00:34:17;10.10;;;8.20;;
77170;SDS011;66144;50.020;14.422;2023-08-17T00:36:43;9.48;;;7.60;;
77170;SDS011;66144;50.020;14.422;2023-08-17T00:39:08;12.38;;;8.82;;
77170;SDS011;66144;50.020;14.422;2023-08-17T00:41:34;10.32;;;8.45;;
77170;SDS011;66144;50.020;14.422;2023-08-17T00:43:59;9.63;;;7.80;;
77170;SDS011;66144;50.020;14.422;2023-08-17T00:46:25;13.63;;;8.15;;
77170;SDS011;66144;50.020;14.422;2023-08-17T00:48:52;9.57;;;7.78;;
77170;SDS011;66144;50.020;14.422;2023-08-17T00:51:20;10.23;;;8.60;;
77170;SDS011;66144;50.020;14.422;2023-08-17T00:53:48;11.50;;;7.90;;
77170;SDS011;66144;50.020;14.422;2023-08-17T00:56:15;9.63;;;7.65;;
77170;SDS011;66144;50.020;14.422;2023-08-17T00:58:41;12.73;;;7.95;;
77170;SDS011;66144;50.020;14.422;2023-08-17T01:01:07;9.70;;;7.72;;
77170;SDS011;66144;50.020;14.422;2023-08-17T01:03:33;11.65;;;7.55;;
77170;SDS011;66144;50.020;14.422;2023-08-17T01:05:59;12.70;;;8.27;;
77170;SDS011;66144;50.020;14.422;2023-08-17T01:08:27;10.30;;;8.50;;
77170;SDS011;66144;50.020;14.422;2023-08-17T01:16:30;10.30;;;8.35;;
77170;SDS011;66144;50.020;14.422;2023-08-17T01:19:00;8.82;;;7.50;;
77170;SDS011;66144;50.020;14.422;2023-08-17T01:21:29;11.85;;;8.40;;
77170;SDS011;66144;50.020;14.422;2023-08-17T01:24:03;10.40;;;8.57;;
77170;SDS011;66144;50.020;14.422;2023-08-17T01:26:28;12.90;;;7.80;;
77170;SDS011;66144;50.020;14.422;2023-08-17T01:28:54;8.68;;;7.38;;
77170;SDS011;66144;50.020;14.422;2023-08-17T01:31:32;11.48;;;8.55;;
77170;SDS011;66144;50.020;14.422;2023-08-17T01:34:07;11.52;;;7.80;;
77170;SDS011;66144;50.020;14.422;2023-08-17T01:36:40;9.00;;;7.60;;
77170;SDS011;66144;50.020;14.422;2023-08-17T01:39:08;10.60;;;7.85;;
77170;SDS011;66144;50.020;14.422;2023-08-17T01:41:36;10.30;;;8.40;;
77170;SDS011;66144;50.020;14.422;2023-08-17T01:44:03;14.15;;;8.02;;
77170;SDS011;66144;50.020;14.422;2023-08-17T01:46:30;11.38;;;7.95;;
77170;SDS011;66144;50.020;14.422;2023-08-17T01:48:59;11.05;;;7.25;;
77170;SDS011;66144;50.020;14.422;2023-08-17T01:51:24;10.02;;;7.45;;
77170;SDS011;66144;50.020;14.422;2023-08-17T01:53:50;10.57;;;8.45;;
77170;SDS011;66144;50.020;14.422;2023-08-17T01:56:16;8.73;;;7.25;;
77170;SDS011;66144;50.020;14.422;2023-08-17T01:58:41;11.68;;;8.30;;
77170;SDS011;66144;50.020;14.422;2023-08-17T02:01:06;11.77;;;7.78;;
77170;SDS011;66144;50.020;14.422;2023-08-17T02:03:32;12.00;;;7.35;;
77170;SDS011;66144;50.020;14.422;2023-08-17T02:05:57;9.40;;;7.22;;
77170;SDS011;66144;50.020;14.422;2023-08-17T02:08:23;10.93;;;7.35;;
77170;SDS011;66144;50.020;14.422;2023-08-17T02:10:49;12.65;;;7.78;;
77170;SDS011;66144;50.020;14.422;2023-08-17T02:13:15;13.60;;;7.68;;
77170;SDS011;66144;50.020;14.422;2023-08-17T02:15:41;8.85;;;7.95;;
77170;SDS011;66144;50.020;14.422;2023-08-17T02:18:06;9.25;;;7.05;;
77170;SDS011;66144;50.020;14.422;2023-08-17T02:20:32;13.38;;;7.47;;
77170;SDS011;66144;50.020;14.422;2023-08-17T02:22:57;9.77;;;7.13;;
77170;SDS011;66144;50.020;14.422;2023-08-17T02:25:23;9.98;;;7.72;;
77170;SDS011;66144;50.020;14.422;2023-08-17T02:27:48;14.40;;;7.10;;
77170;SDS011;66144;50.020;14.422;2023-08-17T02:30:14;10.32;;;7.63;;
77170;SDS011;66144;50.020;14.422;2023-08-17T02:32:39;9.73;;;7.00;;
77170;SDS011;66144;50.020;14.422;2023-08-17T02:35:05;9.00;;;6.68;;
77170;SDS011;66144;50.020;14.422;2023-08-17T02:37:31;9.85;;;7.10;;
77170;SDS011;66144;50.020;14.422;2023-08-17T02:39:56;8.85;;;7.07;;
77170;SDS011;66144;50.020;14.422;2023-08-17T02:42:22;9.20;;;7.00;;
77170;SDS011;66144;50.020;14.422;2023-08-17T02:44:47;9.73;;;7.22;;
77170;SDS011;66144;50.020;14.422;2023-08-17T02:47:13;9.40;;;7.93;;
77170;SDS011;66144;50.020;14.422;2023-08-17T02:49:38;10.13;;;7.45;;
77170;SDS011;66144;50.020;14.422;2023-08-17T02:52:04;10.60;;;7.05;;
77170;SDS011;66144;50.020;14.422;2023-08-17T02:54:29;11.35;;;7.60;;
77170;SDS011;66144;50.020;14.422;2023-08-17T02:56:56;11.00;;;7.90;;
77170;SDS011;66144;50.020;14.422;2023-08-17T02:59:22;12.73;;;7.75;;
77170;SDS011;66144;50.020;14.422;2023-08-17T03:01:47;11.55;;;7.18;;
77170;SDS011;66144;50.020;14.422;2023-08-17T03:04:13;8.98;;;7.15;;
77170;SDS011;66144;50.020;14.422;2023-08-17T03:06:38;9.27;;;6.97;;
77170;SDS011;66144;50.020;14.422;2023-08-17T03:09:04;10.43;;;6.72;;
77170;SDS011;66144;50.020;14.422;2023-08-17T03:11:29;11.10;;;7.85;;
77170;SDS011;66144;50.020;14.422;2023-08-17T03:13:55;9.20;;;7.32;;
77170;SDS011;66144;50.020;14.422;2023-08-17T03:16:25;11.93;;;6.88;;
77170;SDS011;66144;50.020;14.422;2023-08-17T03:18:51;9.52;;;7.10;;
77170;SDS011;66144;50.020;14.422;2023-08-17T03:21:17;9.95;;;7.88;;
77170;SDS011;66144;50.020;14.422;2023-08-17T03:23:43;8.80;;;6.88;;
77170;SDS011;66144;50.020;14.422;2023-08-17T03:26:09;8.75;;;6.55;;
77170;SDS011;66144;50.020;14.422;2023-08-17T03:28:34;8.80;;;6.55;;
77170;SDS011;66144;50.020;14.422;2023-08-17T03:31:00;8.02;;;6.40;;
77170;SDS011;66144;50.020;14.422;2023-08-17T03:33:26;13.27;;;7.60;;
77170;SDS011;66144;50.020;14.422;2023-08-17T03:35:52;18.45;;;7.60;;
77170;SDS011;66144;50.020;14.422;2023-08-17T03:38:17;9.38;;;6.85;;
77170;SDS011;66144;50.020;14.422;2023-08-17T03:40:43;11.02;;;6.90;;
77170;SDS011;66144;50.020;14.422;2023-08-17T03:43:08;8.90;;;6.70;;
77170;SDS011;66144;50.020;14.422;2023-08-17T03:45:33;8.23;;;6.97;;
77170;SDS011;66144;50.020;14.422;2023-08-17T03:47:59;8.82;;;6.65;;
77170;SDS011;66144;50.020;14.422;2023-08-17T03:50:27;11.85;;;7.10;;
77170;SDS011;66144;50.020;14.422;2023-08-17T03:52:53;10.65;;;6.68;;
77170;SDS011;66144;50.020;14.422;2023-08-17T03:55:18;9.65;;;7.30;;
77170;SDS011;66144;50.020;14.422;2023-08-17T03:57:44;11.43;;;7.70;;
77170;SDS011;66144;50.020;14.422;2023-08-17T04:00:09;10.05;;;7.47;;
77170;SDS011;66144;50.020;14.422;2023-08-17T04:02:35;9.93;;;7.45;;
77170;SDS011;66144;50.020;14.422;2023-08-17T04:05:01;10.95;;;7.80;;
77170;SDS011;66144;50.020;14.422;2023-08-17T04:07:26;9.30;;;7.05;;
77170;SDS011;66144;50.020;14.422;2023-08-17T04:09:51;9.88;;;7.50;;
77170;SDS011;66144;50.020;14.422;2023-08-17T04:12:17;10.32;;;7.72;;
77170;SDS011;66144;50.020;14.422;2023-08-17T04:14:43;10.32;;;7.40;;
77170;SDS011;66144;50.020;14.422;2023-08-17T04:17:09;12.70;;;7.47;;
77170;SDS011;66144;50.020;14.422;2023-08-17T04:19:34;8.85;;;6.75;;
77170;SDS011;66144;50.020;14.422;2023-08-17T04:22:00;11.13;;;7.28;;
77170;SDS011;66144;50.020;14.422;2023-08-17T04:24:25;12.85;;;7.30;;
77170;SDS011;66144;50.020;14.422;2023-08-17T04:26:51;9.95;;;7.35;;
77170;SDS011;66144;50.020;14.422;2023-08-17T04:29:16;11.43;;;7.28;;
77170;SDS011;66144;50.020;14.422;2023-08-17T04:31:41;11.80;;;8.18;;
77170;SDS011;66144;50.020;14.422;2023-08-17T04:34:07;15.73;;;7.10;;
77170;SDS011;66144;50.020;14.422;2023-08-17T04:36:32;10.65;;;7.40;;
77170;SDS011;66144;50.020;14.422;2023-08-17T04:38:58;11.10;;;8.82;;
77170;SDS011;66144;50.020;14.422;2023-08-17T04:41:23;12.60;;;8.27;;
77170;SDS011;66144;50.020;14.422;2023-08-17T04:43:49;9.57;;;8.57;;
77170;SDS011;66144;50.020;14.422;2023-08-17T04:46:14;11.05;;;7.03;;
77170;SDS011;66144;50.020;14.422;2023-08-17T04:48:40;8.52;;;7.05;;
77170;SDS011;66144;50.020;14.422;2023-08-17T04:51:05;9.52;;;7.72;;
77170;SDS011;66144;50.020;14.422;2023-08-17T04:53:31;10.07;;;7.68;;
77170;SDS011;66144;50.020;14.422;2023-08-17T04:55:56;13.50;;;8.60;;
77170;SDS011;66144;50.020;14.422;2023-08-17T04:58:21;10.52;;;7.10;;
77170;SDS011;66144;50.020;14.422;2023-08-17T05:00:48;11.50;;;8.88;;
77170;SDS011;66144;50.020;14.422;2023-08-17T05:03:13;13.50;;;9.50;;
77170;SDS011;66144;50.020;14.422;2023-08-17T05:05:39;13.35;;;9.70;;
77170;SDS011;66144;50.020;14.422;2023-08-17T05:08:04;13.98;;;10.82;;
77170;SDS011;66144;50.020;14.422;2023-08-17T05:10:30;16.40;;;9.45;;
77170;SDS011;66144;50.020;14.422;2023-08-17T05:12:55;14.10;;;10.65;;
77170;SDS011;66144;50.020;14.422;2023-08-17T05:15:20;12.82;;;9.70;;
77170;SDS011;66144;50.020;14.422;2023-08-17T05:17:46;13.98;;;10.57;;
77170;SDS011;66144;50.020;14.422;2023-08-17T05:20:11;14.13;;;10.82;;
77170;SDS011;66144;50.020;14.422;2023-08-17T05:22:40;11.35;;;9.38;;
77170;SDS011;66144;50.020;14.422;2023-08-17T05:25:05;12.38;;;9.65;;
77170;SDS011;66144;50.020;14.422;2023-08-17T05:27:31;13.60;;;10.15;;
77170;SDS011;66144;50.020;14.422;2023-08-17T05:29:56;15.63;;;9.88;;
77170;SDS011;66144;50.020;14.422;2023-08-17T05:32:22;11.45;;;9.48;;
77170;SDS011;66144;50.020;14.422;2023-08-17T05:34:47;17.50;;;11.13;;
77170;SDS011;66144;50.020;14.422;2023-08-17T05:37:13;14.13;;;11.00;;
77170;SDS011;66144;50.020;14.422;2023-08-17T05:39:40;16.42;;;10.05;;
77170;SDS011;66144;50.020;14.422;2023-08-17T05:42:06;14.60;;;10.77;;
77170;SDS011;66144;50.020;14.422;2023-08-17T05:44:32;12.75;;;10.00;;
77170;SDS011;66144;50.020;14.422;2023-08-17T05:46:57;13.95;;;9.90;;
77170;SDS011;66144;50.020;14.422;2023-08-17T05:49:23;12.75;;;10.05;;
77170;SDS011;66144;50.020;14.422;2023-08-17T05:51:48;11.00;;;9.65;;
77170;SDS011;66144;50.020;14.422;2023-08-17T05:54:15;12.68;;;9.90;;
77170;SDS011;66144;50.020;14.422;2023-08-17T05:56:41;14.32;;;9.88;;
77170;SDS011;66144;50.020;14.422;2023-08-17T05:59:11;10.85;;;8.98;;
77170;SDS011;66144;50.020;14.422;2023-08-17T06:01:36;10.80;;;9.70;;
77170;SDS011;66144;50.020;14.422;2023-08-17T06:04:03;13.60;;;10.15;;
77170;SDS011;66144;50.020;14.422;2023-08-17T06:06:28;12.63;;;10.13;;
77170;SDS011;66144;50.020;14.422;2023-08-17T06:08:54;13.32;;;10.80;;
77170;SDS011;66144;50.020;14.422;2023-08-17T06:11:19;14.23;;;10.05;;
77170;SDS011;66144;50.020;14.422;2023-08-17T06:13:45;13.48;;;11.10;;
77170;SDS011;66144;50.020;14.422;2023-08-17T06:16:10;13.88;;;11.38;;
77170;SDS011;66144;50.020;14.422;2023-08-17T06:18:36;14.55;;;9.80;;
77170;SDS011;66144;50.020;14.422;2023-08-17T06:21:02;11.80;;;9.60;;
77170;SDS011;66144;50.020;14.422;2023-08-17T06:23:28;13.93;;;11.80;;
77170;SDS011;66144;50.020;14.422;2023-08-17T06:25:57;14.20;;;10.43;;
77170;SDS011;66144;50.020;14.422;2023-08-17T06:28:23;12.88;;;10.82;;
77170;SDS011;66144;50.020;14.422;2023-08-17T06:30:51;11.93;;;10.65;;
77170;SDS011;66144;50.020;14.422;2023-08-17T06:33:20;13.27;;;10.52;;
77170;SDS011;66144;50.020;14.422;2023-08-17T06:35:46;14.23;;;11.48;;
77170;SDS011;66144;50.020;14.422;2023-08-17T06:38:12;15.48;;;12.82;;
77170;SDS011;66144;50.020;14.422;2023-08-17T06:40:37;14.25;;;10.85;;
77170;SDS011;66144;50.020;14.422;2023-08-17T06:43:03;15.00;;;11.13;;
77170;SDS011;66144;50.020;14.422;2023-08-17T06:45:28;14.95;;;12.27;;
77170;SDS011;66144;50.020;14.422;2023-08-17T06:47:56;13.52;;;11.52;;
77170;SDS011;66144;50.020;14.422;2023-08-17T06:50:21;14.63;;;11.38;;
77170;SDS011;66144;50.020;14.422;2023-08-17T06:52:46;14.45;;;11.45;;
77170;SDS011;66144;50.020;14.422;2023-08-17T06:55:12;13.80;;;11.23;;
77170;SDS011;66144;50.020;14.422;2023-08-17T06:57:37;12.70;;;10.73;;
77170;SDS011;66144;50.020;14.422;2023-08-17T07:00:03;14.98;;;11.40;;
77170;SDS011;66144;50.020;14.422;2023-08-17T07:02:30;13.57;;;11.13;;
77170;SDS011;66144;50.020;14.422;2023-08-17T07:04:56;13.65;;;10.27;;
77170;SDS011;66144;50.020;14.422;2023-08-17T07:07:21;12.68;;;10.23;;
77170;SDS011;66144;50.020;14.422;2023-08-17T07:09:47;14.27;;;9.63;;
77170;SDS011;66144;50.020;14.422;2023-08-17T07:12:15;10.85;;;9.23;;
77170;SDS011;66144;50.020;14.422;2023-08-17T07:14:41;10.07;;;8.90;;
77170;SDS011;66144;50.020;14.422;2023-08-17T07:17:06;12.38;;;9.55;;
77170;SDS011;66144;50.020;14.422;2023-08-17T07:19:31;11.82;;;9.38;;
77170;SDS011;66144;50.020;14.422;2023-08-17T07:21:57;11.65;;;9.07;;
77170;SDS011;66144;50.020;14.422;2023-08-17T07:24:22;10.30;;;9.20;;
77170;SDS011;66144;50.020;14.422;2023-08-17T07:26:48;9.93;;;8.93;;
77170;SDS011;66144;50.020;14.422;2023-08-17T07:29:13;11.30;;;9.02;;
77170;SDS011;66144;50.020;14.422;2023-08-17T07:31:38;12.80;;;10.75;;
77170;SDS011;66144;50.020;14.422;2023-08-17T07:34:05;12.75;;;9.82;;
77170;SDS011;66144;50.020;14.422;2023-08-17T07:36:31;13.43;;;11.65;;
77170;SDS011;66144;50.020;14.422;2023-08-17T07:38:57;12.70;;;10.88;;
77170;SDS011;66144;50.020;14.422;2023-08-17T07:41:22;13.60;;;10.85;;
77170;SDS011;66144;50.020;14.422;2023-08-17T07:43:47;11.43;;;9.95;;
77170;SDS011;66144;50.020;14.422;2023-08-17T07:46:13;11.20;;;9.07;;
77170;SDS011;66144;50.020;14.422;2023-08-17T07:48:38;9.93;;;8.77;;
77170;SDS011;66144;50.020;14.422;2023-08-17T07:51:03;10.30;;;8.27;;
77170;SDS011;66144;50.020;14.422;2023-08-17T07:53:29;10.57;;;8.80;;
77170;SDS011;66144;50.020;14.422;2023-08-17T07:55:54;9.77;;;8.50;;
77170;SDS011;66144;50.020;14.422;2023-08-17T07:58:20;9.90;;;8.80;;
77170;SDS011;66144;50.020;14.422;2023-08-17T08:00:45;9.73;;;8.73;;
77170;SDS011;66144;50.020;14.422;2023-08-17T08:03:11;9.50;;;8.55;;
77170;SDS011;66144;50.020;14.422;2023-08-17T08:05:36;10.13;;;8.77;;
77170;SDS011;66144;50.020;14.422;2023-08-17T08:08:01;11.88;;;8.20;;
77170;SDS011;66144;50.020;14.422;2023-08-17T08:10:27;10.93;;;8.77;;
77170;SDS011;66144;50.020;14.422;2023-08-17T08:12:53;9.48;;;8.00;;
77170;SDS011;66144;50.020;14.422;2023-08-17T08:15:18;10.68;;;8.05;;
77170;SDS011;66144;50.020;14.422;2023-08-17T08:17:44;9.38;;;8.02;;
77170;SDS011;66144;50.020;14.422;2023-08-17T08:20:09;9.90;;;8.90;;
77170;SDS011;66144;50.020;14.422;2023-08-17T08:22:36;9.70;;;8.63;;
77170;SDS011;66144;50.020;14.422;2023-08-17T08:25:01;8.93;;;7.97;;
77170;SDS011;66144;50.020;14.422;2023-08-17T08:27:27;9.35;;;8.50;;
77170;SDS011;66144;50.020;14.422;2023-08-17T08:29:52;9.90;;;8.68;;
77170;SDS011;66144;50.020;14.422;2023-08-17T08:32:17;8.93;;;7.95;;
77170;SDS011;66144;50.020;14.422;2023-08-17T08:34:43;8.77;;;7.97;;
77170;SDS011;66144;50.020;14.422;2023-08-17T08:37:08;8.98;;;8.15;;
77170;SDS011;66144;50.020;14.422;2023-08-17T08:39:47;9.30;;;8.27;;
77170;SDS011;66144;50.020;14.422;2023-08-17T08:42:13;10.10;;;9.10;;
77170;SDS011;66144;50.020;14.422;2023-08-17T08:44:39;9.15;;;8.35;;
77170;SDS011;66144;50.020;14.422;2023-08-17T08:47:04;9.02;;;8.15;;
77170;SDS011;66144;50.020;14.422;2023-08-17T08:49:31;8.80;;;7.90;;
77170;SDS011;66144;50.020;14.422;2023-08-17T08:52:01;10.27;;;9.18;;
77170;SDS011;66144;50.020;14.422;2023-08-17T08:54:29;9.15;;;8.25;;
77170;SDS011;66144;50.020;14.422;2023-08-17T08:56:59;9.23;;;8.30;;
77170;SDS011;66144;50.020;14.422;2023-08-17T08:59:28;9.57;;;8.48;;
77170;SDS011;66144;50.020;14.422;2023-08-17T09:01:55;8.85;;;8.05;;
77170;SDS011;66144;50.020;14.422;2023-08-17T09:04:22;9.15;;;8.25;;
77170;SDS011;66144;50.020;14.422;2023-08-17T09:06:48;8.98;;;8.13;;
77170;SDS011;66144;50.020;14.422;2023-08-17T09:09:16;8.93;;;7.93;;
77170;SDS011;66144;50.020;14.422;2023-08-17T09:11:43;9.27;;;8.10;;
77170;SDS011;66144;50.020;14.422;2023-08-17T09:14:08;11.20;;;10.20;;
77170;SDS011;66144;50.020;14.422;2023-08-17T09:16:34;11.73;;;9.35;;
77170;SDS011;66144;50.020;14.422;2023-08-17T09:18:59;10.57;;;9.23;;
77170;SDS011;66144;50.020;14.422;2023-08-17T09:21:25;9.55;;;8.65;;
77170;SDS011;66144;50.020;14.422;2023-08-17T09:23:51;9.77;;;8.63;;
77170;SDS011;66144;50.020;14.422;2023-08-17T09:26:17;10.68;;;8.35;;
77170;SDS011;66144;50.020;14.422;2023-08-17T09:28:45;11.38;;;8.68;;
77170;SDS011;66144;50.020;14.422;2023-08-17T09:31:10;9.65;;;8.65;;
77170;SDS011;66144;50.020;14.422;2023-08-17T09:33:36;10.10;;;9.07;;
77170;SDS011;66144;50.020;14.422;2023-08-17T09:36:02;9.88;;;8.45;;
77170;SDS011;66144;50.020;14.422;2023-08-17T09:38:28;9.45;;;8.55;;
77170;SDS011;66144;50.020;14.422;2023-08-17T09:40:54;10.00;;;8.45;;
77170;SDS011;66144;50.020;14.422;2023-08-17T09:43:20;9.70;;;8.70;;
77170;SDS011;66144;50.020;14.422;2023-08-17T09:45:49;10.90;;;8.93;;
77170;SDS011;66144;50.020;14.422;2023-08-17T09:48:15;11.45;;;9.15;;
77170;SDS011;66144;50.020;14.422;2023-08-17T09:50:48;9.65;;;8.65;;
77170;SDS011;66144;50.020;14.422;2023-08-17T09:53:13;10.63;;;9.45;;
77170;SDS011;66144;50.020;14.422;2023-08-17T09:55:41;11.05;;;9.35;;
77170;SDS011;66144;50.020;14.422;2023-08-17T09:58:08;9.93;;;8.90;;
77170;SDS011;66144;50.020;14.422;2023-08-17T10:00:34;9.82;;;8.85;;
77170;SDS011;66144;50.020;14.422;2023-08-17T10:03:02;10.35;;;8.63;;
77170;SDS011;66144;50.020;14.422;2023-08-17T10:05:32;11.75;;;9.43;;
77170;SDS011;66144;50.020;14.422;2023-08-17T10:08:03;10.45;;;9.35;;
77170;SDS011;66144;50.020;14.422;2023-08-17T10:10:32;11.13;;;9.18;;
77170;SDS011;66144;50.020;14.422;2023-08-17T10:15:45;10.82;;;9.43;;
77170;SDS011;66144;50.020;14.422;2023-08-17T10:18:27;11.00;;;9.90;;
77170;SDS011;66144;50.020;14.422;2023-08-17T10:21:01;10.35;;;8.75;;
77170;SDS011;66144;50.020;14.422;2023-08-17T10:23:29;10.35;;;9.35;;
77170;SDS011;66144;50.020;14.422;2023-08-17T10:25:55;9.75;;;8.75;;
77170;SDS011;66144;50.020;14.422;2023-08-17T10:28:21;11.00;;;9.90;;
77170;SDS011;66144;50.020;14.422;2023-08-17T10:30:48;10.40;;;9.35;;
77170;SDS011;66144;50.020;14.422;2023-08-17T10:33:13;10.88;;;8.98;;
77170;SDS011;66144;50.020;14.422;2023-08-17T10:35:40;10.27;;;9.15;;
77170;SDS011;66144;50.020;14.422;2023-08-17T10:38:06;9.27;;;8.10;;
77170;SDS011;66144;50.020;14.422;2023-08-17T10:40:36;11.07;;;9.55;;
77170;SDS011;66144;50.020;14.422;2023-08-17T10:43:02;10.00;;;9.00;;
77170;SDS011;66144;50.020;14.422;2023-08-17T10:45:28;9.35;;;8.45;;
77170;SDS011;66144;50.020;14.422;2023-08-17T10:48:00;9.18;;;8.27;;
77170;SDS011;66144;50.020;14.422;2023-08-17T10:50:34;10.80;;;9.50;;
77170;SDS011;66144;50.020;14.422;2023-08-17T10:53:11;9.43;;;8.52;;
77170;SDS011;66144;50.020;14.422;2023-08-17T10:55:41;11.32;;;9.15;;
77170;SDS011;66144;50.020;14.422;2023-08-17T10:58:09;10.45;;;8.40;;
77170;SDS011;66144;50.020;14.422;2023-08-17T11:00:37;9.25;;;8.25;;
77170;SDS011;66144;50.020;14.422;2023-08-17T11:03:07;9.48;;;7.70;;
77170;SDS011;66144;50.020;14.422;2023-08-17T11:08:10;9.15;;;8.20;;
77170;SDS011;66144;50.020;14.422;2023-08-17T11:13:32;13.27;;;9.32;;
77170;SDS011;66144;50.020;14.422;2023-08-17T11:15:59;12.48;;;10.02;;
77170;SDS011;66144;50.020;14.422;2023-08-17T11:18:25;10.18;;;9.20;;
77170;SDS011;66144;50.020;14.422;2023-08-17T11:20:50;9.82;;;8.82;;
77170;SDS011;66144;50.020;14.422;2023-08-17T11:23:16;13.20;;;8.63;;
77170;SDS011;66144;50.020;14.422;2023-08-17T11:25:43;8.98;;;8.10;;
77170;SDS011;66144;50.020;14.422;2023-08-17T11:28:08;8.85;;;8.02;;
77170;SDS011;66144;50.020;14.422;2023-08-17T11:30:34;10.13;;;8.15;;
77170;SDS011;66144;50.020;14.422;2023-08-17T11:33:03;9.02;;;8.18;;
77170;SDS011;66144;50.020;14.422;2023-08-17T11:35:28;9.75;;;8.85;;
77170;SDS011;66144;50.020;14.422;2023-08-17T11:37:54;8.85;;;7.80;;
77170;SDS011;66144;50.020;14.422;2023-08-17T11:40:19;9.52;;;8.52;;
77170;SDS011;66144;50.020;14.422;2023-08-17T11:42:45;8.90;;;7.95;;
77170;SDS011;66144;50.020;14.422;2023-08-17T11:45:11;9.38;;;8.48;;
77170;SDS011;66144;50.020;14.422;2023-08-17T11:47:38;9.45;;;8.32;;
77170;SDS011;66144;50.020;14.422;2023-08-17T11:50:05;10.15;;;9.05;;
77170;SDS011;66144;50.020;14.422;2023-08-17T11:52:31;8.10;;;7.40;;
77170;SDS011;66144;50.020;14.422;2023-08-17T11:55:02;8.70;;;6.68;;
77170;SDS011;66144;50.020;14.422;2023-08-17T11:57:30;6.85;;;6.20;;
77170;SDS011;66144;50.020;14.422;2023-08-17T11:59:59;9.00;;;7.53;;
77170;SDS011;66144;50.020;14.422;2023-08-17T12:02:26;9.63;;;8.63;;
77170;SDS011;66144;50.020;14.422;2023-08-17T12:04:52;9.45;;;8.57;;
77170;SDS011;66144;50.020;14.422;2023-08-17T12:07:19;8.13;;;7.32;;
77170;SDS011;66144;50.020;14.422;2023-08-17T12:09:48;7.90;;;7.10;;
77170;SDS011;66144;50.020;14.422;2023-08-17T12:12:17;8.07;;;7.35;;
77170;SDS011;66144;50.020;14.422;2023-08-17T12:14:43;6.72;;;6.05;;
77170;SDS011;66144;50.020;14.422;2023-08-17T12:17:18;9.15;;;6.50;;
77170;SDS011;66144;50.020;14.422;2023-08-17T12:19:48;7.68;;;6.88;;
77170;SDS011;66144;50.020;14.422;2023-08-17T12:24:41;8.65;;;7.70;;
77170;SDS011;66144;50.020;14.422;2023-08-17T12:27:07;9.27;;;8.18;;
77170;SDS011;66144;50.020;14.422;2023-08-17T12:29:33;8.52;;;7.68;;
77170;SDS011;66144;50.020;14.422;2023-08-17T12:31:59;8.77;;;7.57;;
77170;SDS011;66144;50.020;14.422;2023-08-17T12:34:26;8.63;;;7.40;;
77170;SDS011;66144;50.020;14.422;2023-08-17T12:36:52;8.52;;;7.72;;
77170;SDS011;66144;50.020;14.422;2023-08-17T12:39:17;8.20;;;7.40;;
77170;SDS011;66144;50.020;14.422;2023-08-17T12:41:42;10.30;;;8.43;;
77170;SDS011;66144;50.020;14.422;2023-08-17T12:44:09;8.00;;;7.25;;
77170;SDS011;66144;50.020;14.422;2023-08-17T12:46:38;8.45;;;6.75;;
77170;SDS011;66144;50.020;14.422;2023-08-17T12:49:04;7.65;;;6.07;;
77170;SDS011;66144;50.020;14.422;2023-08-17T12:51:29;8.75;;;6.07;;
77170;SDS011;66144;50.020;14.422;2023-08-17T12:53:55;6.63;;;4.88;;
77170;SDS011;66144;50.020;14.422;2023-08-17T12:56:20;6.80;;;5.75;;
77170;SDS011;66144;50.020;14.422;2023-08-17T12:58:45;6.38;;;5.00;;
77170;SDS011;66144;50.020;14.422;2023-08-17T13:01:11;8.95;;;4.97;;
77170;SDS011;66144;50.020;14.422;2023-08-17T13:03:38;5.90;;;4.70;;
77170;SDS011;66144;50.020;14.422;2023-08-17T13:06:04;5.78;;;4.35;;
77170;SDS011;66144;50.020;14.422;2023-08-17T13:08:29;5.70;;;4.15;;
77170;SDS011;66144;50.020;14.422;2023-08-17T13:10:55;7.15;;;4.25;;
77170;SDS011;66144;50.020;14.422;2023-08-17T13:13:20;5.72;;;4.15;;
77170;SDS011;66144;50.020;14.422;2023-08-17T13:15:45;9.40;;;4.18;;
77170;SDS011;66144;50.020;14.422;2023-08-17T13:18:11;7.13;;;4.22;;
77170;SDS011;66144;50.020;14.422;2023-08-17T13:20:36;5.38;;;4.30;;
77170;SDS011;66144;50.020;14.422;2023-08-17T13:23:03;4.75;;;3.95;;
77170;SDS011;66144;50.020;14.422;2023-08-17T13:25:29;5.10;;;3.90;;
77170;SDS011;66144;50.020;14.422;2023-08-17T13:27:54;7.80;;;3.67;;
77170;SDS011;66144;50.020;14.422;2023-08-17T13:30:20;7.55;;;3.70;;
77170;SDS011;66144;50.020;14.422;2023-08-17T13:32:46;5.38;;;3.78;;
77170;SDS011;66144;50.020;14.422;2023-08-17T13:35:11;5.55;;;4.20;;
77170;SDS011;66144;50.020;14.422;2023-08-17T13:37:37;7.00;;;4.18;;
77170;SDS011;66144;50.020;14.422;2023-08-17T13:40:03;7.50;;;4.10;;
77170;SDS011;66144;50.020;14.422;2023-08-17T13:42:28;6.47;;;4.60;;
77170;SDS011;66144;50.020;14.422;2023-08-17T13:44:54;6.40;;;4.90;;
77170;SDS011;66144;50.020;14.422;2023-08-17T13:47:19;6.07;;;4.60;;
77170;SDS011;66144;50.020;14.422;2023-08-17T13:49:44;6.50;;;4.55;;
77170;SDS011;66144;50.020;14.422;2023-08-17T13:52:10;7.45;;;5.75;;
77170;SDS011;66144;50.020;14.422;2023-08-17T13:54:35;5.03;;;4.53;;
77170;SDS011;66144;50.020;14.422;2023-08-17T13:57:01;7.82;;;5.38;;
77170;SDS011;66144;50.020;14.422;2023-08-17T13:59:26;9.50;;;5.22;;
77170;SDS011;66144;50.020;14.422;2023-08-17T14:01:52;8.00;;;5.07;;
77170;SDS011;66144;50.020;14.422;2023-08-17T14:04:17;7.07;;;4.57;;
77170;SDS011;66144;50.020;14.422;2023-08-17T14:06:43;6.03;;;4.85;;
77170;SDS011;66144;50.020;14.422;2023-08-17T14:09:09;6.75;;;4.93;;
77170;SDS011;66144;50.020;14.422;2023-08-17T14:11:34;6.75;;;4.72;;
77170;SDS011;66144;50.020;14.422;2023-08-17T14:14:00;6.60;;;4.70;;
77170;SDS011;66144;50.020;14.422;2023-08-17T14:16:25;7.43;;;4.50;;
77170;SDS011;66144;50.020;14.422;2023-08-17T14:18:50;8.18;;;4.63;;
77170;SDS011;66144;50.020;14.422;2023-08-17T14:21:16;8.25;;;4.93;;
77170;SDS011;66144;50.020;14.422;2023-08-17T14:23:41;6.90;;;5.05;;
77170;SDS011;66144;50.020;14.422;2023-08-17T14:26:07;9.57;;;5.63;;
77170;SDS011;66144;50.020;14.422;2023-08-17T14:28:32;10.07;;;6.03;;
77170;SDS011;66144;50.020;14.422;2023-08-17T14:30:58;10.13;;;6.65;;
77170;SDS011;66144;50.020;14.422;2023-08-17T14:33:23;8.13;;;5.78;;
77170;SDS011;66144;50.020;14.422;2023-08-17T14:35:49;8.27;;;6.10;;